Time;durP1;ratioP1;P1;durP2;ratioP2;P2;SDS_P1;SDS_P2;PMS_P1;PMS_P2;Temp;Humidity;BMP_temperature;BMP_pressure;BME280_temperature;BME280_humidity;BME280_pressure;Samples;Min_cycle;Max_cycle;Signal;HPM_P1;HPM_P2
2022/09/15 00:01:52;;;;;;;5.67;2.90;;;19.10;42.40;;;;;;5048673;28;20853;-61
2022/09/15 00:04:18;;;;;;;6.00;2.37;;;19.10;42.30;;;;;;5044104;28;20469;-61
2022/09/15 00:06:45;;;;;;;6.00;2.27;;;19.10;42.30;;;;;;5040004;28;20864;-61
2022/09/15 00:09:12;;;;;;;6.40;2.80;;;19.10;42.40;;;;;;5046243;28;20482;-61
2022/09/15 00:11:40;;;;;;;5.40;2.50;;;19.10;42.40;;;;;;5048235;28;20461;-60
2022/09/15 00:14:08;;;;;;;5.87;2.43;;;19.10;42.40;;;;;;5047798;28;20461;-60
2022/09/15 00:16:35;;;;;;;8.13;2.80;;;19.10;42.30;;;;;;5041530;28;20461;-60
2022/09/15 00:19:02;;;;;;;6.80;2.70;;;19.10;43.00;;;;;;5042808;28;21007;-61
2022/09/15 00:21:31;;;;;;;6.50;2.50;;;19.00;42.30;;;;;;5049288;28;20457;-61
2022/09/15 00:24:00;;;;;;;5.20;2.50;;;19.00;42.30;;;;;;5046666;28;20490;-61
2022/09/15 00:26:28;;;;;;;6.50;2.60;;;19.00;42.30;;;;;;5045826;28;20461;-61
2022/09/15 00:28:57;;;;;;;7.50;2.57;;;19.00;42.30;;;;;;5041134;28;20481;-60
2022/09/15 00:31:26;;;;;;;6.20;2.47;;;19.00;42.20;;;;;;5049100;28;20470;-61
2022/09/15 00:33:54;;;;;;;6.00;2.67;;;19.00;42.20;;;;;;5047653;28;20474;-60
2022/09/15 00:36:22;;;;;;;8.03;2.90;;;19.00;42.10;;;;;;5047470;28;20453;-60
2022/09/15 00:38:49;;;;;;;5.03;1.70;;;19.00;42.20;;;;;;5045826;28;20470;-60
2022/09/15 00:41:17;;;;;;;7.73;2.97;;;18.90;42.10;;;;;;5048921;28;20453;-60
2022/09/15 00:43:48;;;;;;;6.43;2.17;;;18.90;42.00;;;;;;5046954;28;20842;-61
2022/09/15 00:46:19;;;;;;;5.43;1.80;;;18.90;42.00;;;;;;5047795;28;20458;-60
2022/09/15 00:48:51;;;;;;;8.73;2.70;;;18.90;41.80;;;;;;5041946;28;20861;-61
2022/09/15 00:51:22;;;;;;;4.83;2.03;;;18.80;41.70;;;;;;5047862;28;20458;-60
2022/09/15 00:53:50;;;;;;;5.63;2.30;;;18.90;41.60;;;;;;5044783;28;20462;-60
2022/09/15 00:56:18;;;;;;;4.73;2.00;;;18.80;41.00;;;;;;5042782;28;20533;-63
2022/09/15 00:58:50;;;;;;;4.80;2.10;;;18.90;40.90;;;;;;5041625;28;20488;-60
2022/09/15 01:01:18;;;;;;;5.20;1.73;;;18.90;40.90;;;;;;5047262;28;20462;-62
2022/09/15 01:03:45;;;;;;;4.30;1.73;;;18.90;40.70;;;;;;5045332;28;20466;-62
2022/09/15 01:06:16;;;;;;;5.83;2.10;;;18.90;40.40;;;;;;5047469;28;21059;-62
2022/09/15 01:08:48;;;;;;;5.47;2.30;;;18.90;40.20;;;;;;5045949;28;20481;-62
2022/09/15 01:11:15;;;;;;;4.20;1.77;;;18.90;39.90;;;;;;5045344;28;20462;-62
2022/09/15 01:13:42;;;;;;;4.83;1.97;;;18.90;39.70;;;;;;5044049;28;20985;-62
2022/09/15 01:16:26;;;;;;;4.50;1.77;;;19.00;39.40;;;;;;5043408;28;20836;-62
2022/09/15 01:19:01;;;;;;;5.03;1.90;;;19.00;39.20;;;;;;5047348;28;20474;-62
2022/09/15 01:21:38;;;;;;;6.33;1.53;;;19.00;38.90;;;;;;5048684;28;20469;-62
2022/09/15 01:24:44;;;;;;;6.57;1.90;;;19.00;38.80;;;;;;5047266;28;20461;-62
2022/09/15 01:27:28;;;;;;;6.47;1.70;;;18.90;38.80;;;;;;5048985;28;20458;-62
2022/09/15 01:30:06;;;;;;;5.00;1.50;;;18.90;38.80;;;;;;5044854;28;20556;-62
2022/09/15 01:33:03;;;;;;;6.20;2.50;;;18.90;38.80;;;;;;5019838;28;20478;-62
2022/09/15 01:35:42;;;;;;;5.00;2.07;;;18.90;38.60;;;;;;5021132;28;20466;-62
2022/09/15 01:38:13;;;;;;;4.90;1.50;;;18.80;38.60;;;;;;5024713;28;20466;-62
2022/09/15 01:40:48;;;;;;;8.73;1.87;;;18.90;38.50;;;;;;5025848;28;20455;-62
2022/09/15 01:43:16;;;;;;;4.93;1.43;;;18.80;38.50;;;;;;5023511;28;20462;-62
2022/09/15 01:45:46;;;;;;;6.73;1.83;;;18.80;38.40;;;;;;5025560;28;20967;-62
2022/09/15 01:48:15;;;;;;;6.20;1.70;;;18.70;38.60;;;;;;5027343;28;20462;-62
2022/09/15 01:50:48;;;;;;;4.50;1.30;;;18.70;38.60;;;;;;5022095;28;20459;-62
2022/09/15 01:53:17;;;;;;;5.00;1.70;;;18.70;38.60;;;;;;5023292;28;20486;-62
2022/09/15 01:55:48;;;;;;;3.80;1.43;;;18.60;38.50;;;;;;5023664;28;20470;-62
2022/09/15 01:58:15;;;;;;;4.43;1.50;;;18.60;38.70;;;;;;5021207;28;20828;-63
2022/09/15 02:00:48;;;;;;;4.07;1.47;;;18.50;38.60;;;;;;5024130;28;20473;-62
2022/09/15 02:03:24;;;;;;;4.50;1.57;;;18.60;38.60;;;;;;5013496;28;20464;-63
2022/09/15 02:06:00;;;;;;;6.43;1.60;;;18.50;38.70;;;;;;5022758;28;20516;-62
2022/09/15 02:08:34;;;;;;;5.73;1.60;;;18.50;38.60;;;;;;5018819;28;20458;-62
2022/09/15 02:11:10;;;;;;;5.83;1.57;;;18.50;38.70;;;;;;5024231;28;20813;-62
2022/09/15 02:13:44;;;;;;;3.83;1.30;;;18.50;38.70;;;;;;5020771;28;20464;-62
2022/09/15 02:16:18;;;;;;;5.20;1.60;;;18.50;38.80;;;;;;5025951;28;20463;-62
2022/09/15 02:18:58;;;;;;;4.97;1.83;;;18.40;38.80;;;;;;5025407;28;20470;-62
2022/09/15 02:21:30;;;;;;;7.10;1.93;;;18.50;38.70;;;;;;5025736;28;20829;-62
2022/09/15 02:24:03;;;;;;;4.90;1.60;;;18.50;38.60;;;;;;5022528;28;20884;-62
2022/09/15 02:26:33;;;;;;;4.87;1.60;;;18.40;38.60;;;;;;5026415;28;20459;-62
2022/09/15 02:29:04;;;;;;;5.60;1.90;;;18.40;38.60;;;;;;5017925;28;20489;-62
2022/09/15 02:31:34;;;;;;;4.40;1.57;;;18.40;38.70;;;;;;5023015;28;20487;-62
2022/09/15 02:34:06;;;;;;;5.83;2.10;;;18.30;38.70;;;;;;5026796;28;20451;-62
2022/09/15 02:36:33;;;;;;;4.47;1.60;;;18.30;38.90;;;;;;5024538;28;20455;-62
2022/09/15 02:39:05;;;;;;;5.37;1.90;;;18.30;38.90;;;;;;5023584;28;21018;-62
2022/09/15 02:41:33;;;;;;;4.97;1.70;;;18.20;38.90;;;;;;5023785;28;20521;-62
2022/09/15 02:44:00;;;;;;;6.00;1.87;;;18.20;38.90;;;;;;5026821;28;20470;-62
2022/09/15 02:46:27;;;;;;;4.40;1.67;;;18.20;38.90;;;;;;5021471;28;20466;-63
2022/09/15 02:48:55;;;;;;;5.33;1.70;;;18.20;38.90;;;;;;5022385;28;20537;-62
2022/09/15 02:51:23;;;;;;;4.20;1.67;;;18.20;38.90;;;;;;5024783;28;20473;-62
2022/09/15 02:53:49;;;;;;;5.67;2.30;;;18.20;39.10;;;;;;5025045;28;20462;-62
2022/09/15 02:56:17;;;;;;;4.43;1.90;;;18.10;39.10;;;;;;5018962;28;20462;-62
2022/09/15 02:58:43;;;;;;;4.50;1.60;;;18.10;39.10;;;;;;5024625;28;20506;-62
2022/09/15 03:01:13;;;;;;;5.00;1.33;;;18.20;39.10;;;;;;5025040;28;20467;-62
2022/09/15 03:03:41;;;;;;;4.57;1.60;;;18.10;39.20;;;;;;5027145;28;20458;-62
2022/09/15 03:06:20;;;;;;;5.10;2.07;;;18.10;39.20;;;;;;5022261;28;20463;-62
2022/09/15 03:08:50;;;;;;;6.97;2.00;;;18.20;39.20;;;;;;5022289;28;20478;-62
2022/09/15 03:11:18;;;;;;;6.57;2.00;;;18.20;39.30;;;;;;5022835;28;21164;-62
2022/09/15 03:13:45;;;;;;;3.90;1.40;;;18.20;39.20;;;;;;5023708;28;20469;-62
2022/09/15 03:16:13;;;;;;;5.50;2.00;;;18.20;39.20;;;;;;5022568;28;20970;-62
2022/09/15 03:18:41;;;;;;;5.17;1.87;;;18.20;39.20;;;;;;5027146;28;20482;-62
2022/09/15 03:21:10;;;;;;;4.33;1.70;;;18.30;39.40;;;;;;5021857;28;20463;-62
2022/09/15 03:23:37;;;;;;;5.90;2.43;;;18.30;39.50;;;;;;5022051;28;20469;-63
2022/09/15 03:26:05;;;;;;;5.37;2.00;;;18.30;39.50;;;;;;5023644;28;20471;-62
2022/09/15 03:28:32;;;;;;;7.03;1.90;;;18.30;39.50;;;;;;5024232;28;20464;-63
2022/09/15 03:30:58;;;;;;;4.80;1.60;;;18.30;39.50;;;;;;5027131;28;20474;-62
2022/09/15 03:33:25;;;;;;;4.70;1.70;;;18.30;39.50;;;;;;5018678;28;21132;-62
2022/09/15 03:35:53;;;;;;;6.13;1.80;;;18.40;39.60;;;;;;5024660;28;20463;-62
2022/09/15 03:38:21;;;;;;;5.63;1.70;;;18.40;39.90;;;;;;5021077;28;20852;-63
2022/09/15 03:40:57;;;;;;;4.03;1.60;;;18.40;40.00;;;;;;5020072;28;20459;-63
2022/09/15 03:43:24;;;;;;;4.60;1.87;;;18.50;40.10;;;;;;5021062;28;20863;-63
2022/09/15 03:45:51;;;;;;;6.00;1.93;;;18.40;40.00;;;;;;5024887;28;20971;-63
2022/09/15 03:48:18;;;;;;;4.70;1.90;;;18.40;40.00;;;;;;5014261;28;20483;-63
2022/09/15 03:50:44;;;;;;;11.13;2.23;;;18.40;40.10;;;;;;5019937;28;20483;-63
2022/09/15 03:53:11;;;;;;;4.80;1.80;;;18.40;40.20;;;;;;5020968;28;20471;-63
2022/09/15 03:55:39;;;;;;;5.83;1.77;;;18.40;40.10;;;;;;5024924;28;20470;-63
2022/09/15 03:58:06;;;;;;;5.60;2.00;;;18.40;40.10;;;;;;5026757;28;20976;-62
2022/09/15 04:00:34;;;;;;;5.40;2.07;;;18.40;40.00;;;;;;5022040;28;20593;-63
2022/09/15 04:03:00;;;;;;;5.50;1.97;;;18.40;40.00;;;;;;5016130;28;20514;-63
2022/09/15 04:05:27;;;;;;;6.67;2.00;;;18.50;40.20;;;;;;5020178;28;20467;-62
2022/09/15 04:07:54;;;;;;;6.10;1.70;;;18.50;40.00;;;;;;5020799;28;20466;-62
2022/09/15 04:10:23;;;;;;;5.47;2.07;;;18.40;40.00;;;;;;5022340;28;20494;-63
2022/09/15 04:12:52;;;;;;;5.20;1.20;;;18.50;40.00;;;;;;5023926;28;20462;-69
2022/09/15 04:15:19;;;;;;;5.93;2.00;;;18.40;39.90;;;;;;5017146;28;20471;-64
2022/09/15 04:17:46;;;;;;;6.13;1.77;;;18.40;40.10;;;;;;5018859;28;20459;-63
2022/09/15 04:20:13;;;;;;;4.47;1.43;;;18.50;40.00;;;;;;5026187;28;20490;-64
2022/09/15 04:22:40;;;;;;;4.73;1.53;;;18.50;40.00;;;;;;5025429;28;20982;-63
2022/09/15 04:25:09;;;;;;;6.47;1.60;;;18.50;39.80;;;;;;5028412;28;20454;-63
2022/09/15 04:27:37;;;;;;;5.40;1.70;;;18.50;39.70;;;;;;5029465;28;20466;-63
2022/09/15 04:30:07;;;;;;;5.17;1.87;;;18.50;39.90;;;;;;5029269;28;20478;-63
2022/09/15 04:32:34;;;;;;;5.67;1.90;;;18.50;39.80;;;;;;5025230;28;20852;-65
2022/09/15 04:35:01;;;;;;;4.40;1.60;;;18.50;39.70;;;;;;5029851;28;20512;-63
2022/09/15 04:37:27;;;;;;;6.70;1.37;;;18.50;39.60;;;;;;5029907;28;20470;-63
2022/09/15 04:39:55;;;;;;;5.20;1.80;;;18.50;39.70;;;;;;5030165;28;20482;-63
2022/09/15 04:42:22;;;;;;;4.57;1.30;;;18.50;39.60;;;;;;5027086;28;20458;-63
2022/09/15 04:44:49;;;;;;;4.10;1.70;;;18.50;39.60;;;;;;5027401;28;20617;-63
2022/09/15 04:47:18;;;;;;;4.23;1.50;;;18.50;39.50;;;;;;5022489;28;20452;-64
2022/09/15 04:49:45;;;;;;;5.30;1.90;;;18.50;39.60;;;;;;5016579;28;21041;-64
2022/09/15 04:52:12;;;;;;;6.47;1.63;;;18.50;39.60;;;;;;5020261;28;20525;-63
2022/09/15 04:54:39;;;;;;;5.37;1.80;;;18.50;39.50;;;;;;5020054;28;20456;-63
2022/09/15 04:57:06;;;;;;;4.37;1.47;;;18.50;39.50;;;;;;5030024;28;20455;-64
2022/09/15 04:59:32;;;;;;;5.20;1.57;;;18.50;39.30;;;;;;5027855;28;20482;-64
2022/09/15 05:01:59;;;;;;;5.30;1.27;;;18.50;39.40;;;;;;5024430;28;20487;-63
2022/09/15 05:04:27;;;;;;;4.80;1.60;;;18.50;39.40;;;;;;5028327;28;20970;-63
2022/09/15 05:06:54;;;;;;;6.57;1.30;;;18.50;39.30;;;;;;5024715;28;20466;-63
2022/09/15 05:09:21;;;;;;;3.67;1.20;;;18.50;39.20;;;;;;5021695;28;20482;-63
2022/09/15 05:11:48;;;;;;;6.37;1.50;;;18.50;39.10;;;;;;5027684;28;21068;-63
2022/09/15 05:14:15;;;;;;;5.23;1.60;;;18.50;39.30;;;;;;5028520;28;20466;-63
2022/09/15 05:16:41;;;;;;;5.40;1.77;;;18.50;39.00;;;;;;5027580;28;21146;-63
2022/09/15 05:19:10;;;;;;;5.20;1.50;;;18.50;39.10;;;;;;5028667;28;20475;-63
2022/09/15 05:21:39;;;;;;;7.50;1.60;;;18.50;39.00;;;;;;5022569;28;20463;-64
2022/09/15 05:24:06;;;;;;;5.57;1.57;;;18.50;39.20;;;;;;5019637;28;20463;-64
2022/09/15 05:26:32;;;;;;;5.63;1.73;;;18.50;39.20;;;;;;5028027;28;20458;-63
2022/09/15 05:28:59;;;;;;;4.70;1.57;;;18.50;39.00;;;;;;5027531;28;20498;-63
2022/09/15 05:31:27;;;;;;;5.87;1.73;;;18.50;39.00;;;;;;5029165;28;20562;-63
2022/09/15 05:33:54;;;;;;;4.37;1.40;;;18.50;38.90;;;;;;5031378;28;20462;-64
2022/09/15 05:36:23;;;;;;;5.57;1.20;;;18.50;38.70;;;;;;5025944;28;20466;-64
2022/09/15 05:38:52;;;;;;;4.90;1.60;;;18.50;38.70;;;;;;5026103;28;20482;-63
2022/09/15 05:41:19;;;;;;;4.77;1.70;;;18.50;38.70;;;;;;5026738;28;20462;-63
2022/09/15 05:43:48;;;;;;;6.37;1.60;;;18.50;38.60;;;;;;5029788;28;20987;-64
2022/09/15 05:46:16;;;;;;;5.70;1.20;;;18.50;38.70;;;;;;5031253;28;21174;-63
2022/09/15 05:48:44;;;;;;;4.60;1.90;;;18.50;38.50;;;;;;5030426;28;21080;-63
2022/09/15 05:51:11;;;;;;;5.53;1.70;;;18.60;38.30;;;;;;5029040;28;20486;-63
2022/09/15 05:53:39;;;;;;;7.80;1.60;;;18.60;38.30;;;;;;5023032;28;20462;-64
2022/09/15 05:56:10;;;;;;;6.50;1.60;;;18.60;38.30;;;;;;5022872;28;20459;-63
2022/09/15 05:58:40;;;;;;;4.97;1.70;;;18.60;38.40;;;;;;5032910;28;20584;-63
2022/09/15 06:01:08;;;;;;;4.40;1.13;;;18.60;38.40;;;;;;5033322;28;20986;-64
2022/09/15 06:03:36;;;;;;;4.83;1.60;;;18.60;38.20;;;;;;5046156;28;20477;-63
2022/09/15 06:06:04;;;;;;;4.20;1.43;;;18.60;38.40;;;;;;5041205;28;20469;-64
2022/09/15 06:08:32;;;;;;;4.40;1.60;;;18.60;38.60;;;;;;5043301;28;20832;-63
2022/09/15 06:11:04;;;;;;;4.50;1.60;;;18.60;38.90;;;;;;5044302;28;20475;-64
2022/09/15 06:13:32;;;;;;;4.87;1.90;;;18.70;38.90;;;;;;5042573;23;20638;-64
2022/09/15 06:16:04;;;;;;;4.97;1.30;;;18.70;38.90;;;;;;5037479;28;20465;-63
2022/09/15 06:18:32;;;;;;;4.70;1.30;;;18.80;38.90;;;;;;5039875;28;20950;-63
2022/09/15 06:21:06;;;;;;;7.80;2.00;;;18.80;38.60;;;;;;5046383;28;20469;-63
2022/09/15 06:23:33;;;;;;;8.60;1.80;;;18.80;38.80;;;;;;5041601;28;20473;-64
2022/09/15 06:26:06;;;;;;;5.00;1.33;;;18.90;38.60;;;;;;5042319;28;20463;-64
2022/09/15 06:28:34;;;;;;;5.60;1.70;;;18.90;38.50;;;;;;5043676;28;20941;-64
2022/09/15 06:31:01;;;;;;;5.33;1.57;;;19.00;38.40;;;;;;5045859;28;20474;-63
2022/09/15 06:33:27;;;;;;;5.20;1.70;;;19.00;38.30;;;;;;5040831;28;20489;-63
2022/09/15 06:35:55;;;;;;;4.00;1.30;;;19.00;37.90;;;;;;5045253;28;20976;-64
2022/09/15 06:38:22;;;;;;;9.20;2.03;;;19.00;37.80;;;;;;5046652;28;20455;-64
2022/09/15 06:40:59;;;;;;;4.27;1.30;;;19.00;38.30;;;;;;5044742;28;20465;-63
2022/09/15 06:43:26;;;;;;;4.73;1.67;;;19.10;38.00;;;;;;5042134;28;20469;-64
2022/09/15 06:46:02;;;;;;;4.97;1.30;;;19.10;37.90;;;;;;5041865;28;20462;-63
2022/09/15 06:48:30;;;;;;;7.60;1.70;;;19.10;37.90;;;;;;5038540;28;20481;-64
2022/09/15 06:50:57;;;;;;;4.77;1.40;;;19.20;37.80;;;;;;5041900;28;20474;-64
2022/09/15 06:53:24;;;;;;;4.10;1.57;;;19.20;37.80;;;;;;5036288;28;20485;-63
2022/09/15 06:55:51;;;;;;;5.07;1.60;;;19.30;37.70;;;;;;5043312;28;20458;-64
2022/09/15 06:58:18;;;;;;;4.63;1.23;;;19.40;37.40;;;;;;5046612;28;20450;-63
2022/09/15 07:00:45;;;;;;;5.07;1.43;;;19.70;37.00;;;;;;5041389;28;20462;-64
2022/09/15 07:03:13;;;;;;;6.13;1.67;;;20.20;35.70;;;;;;5042171;28;20513;-63
2022/09/15 07:05:39;;;;;;;4.90;1.23;;;21.80;32.70;;;;;;5042909;28;20467;-63
2022/09/15 07:08:06;;;;;;;3.70;1.10;;;23.30;26.80;;;;;;5043316;28;20457;-63
2022/09/15 07:10:33;;;;;;;8.63;1.40;;;23.20;24.90;;;;;;5039147;28;20479;-64
2022/09/15 07:13:00;;;;;;;4.17;1.40;;;22.90;25.80;;;;;;5043477;28;20470;-64
2022/09/15 07:15:27;;;;;;;4.80;1.00;;;22.90;25.90;;;;;;5047136;28;20490;-64
2022/09/15 07:17:54;;;;;;;4.80;1.13;;;22.90;25.90;;;;;;5045376;28;20458;-64
2022/09/15 07:20:22;;;;;;;4.30;1.23;;;22.80;25.50;;;;;;5046721;28;20466;-64
2022/09/15 07:22:48;;;;;;;4.83;1.77;;;22.80;25.10;;;;;;5038642;28;20469;-64
2022/09/15 07:25:15;;;;;;;4.47;1.43;;;22.90;24.70;;;;;;5046736;28;20462;-63
2022/09/15 07:27:42;;;;;;;4.60;1.10;;;22.90;24.70;;;;;;5033829;28;20470;-64
2022/09/15 07:30:10;;;;;;;3.93;1.30;;;22.90;24.40;;;;;;5040705;28;20470;-64
2022/09/15 07:32:36;;;;;;;3.70;1.23;;;22.70;24.60;;;;;;5041473;28;20468;-64
2022/09/15 07:35:04;;;;;;;3.53;1.10;;;22.60;25.00;;;;;;5039333;28;20479;-64
2022/09/15 07:37:32;;;;;;;5.40;1.17;;;22.50;25.40;;;;;;5044221;28;20462;-63
2022/09/15 07:39:59;;;;;;;6.73;1.60;;;22.40;25.60;;;;;;5036586;28;21012;-63
2022/09/15 07:42:25;;;;;;;3.83;1.20;;;22.40;25.40;;;;;;5040899;28;21016;-64
2022/09/15 07:44:52;;;;;;;4.23;1.37;;;22.40;25.70;;;;;;5043372;28;20477;-64
2022/09/15 07:47:19;;;;;;;6.77;1.33;;;22.40;25.80;;;;;;5043331;28;21047;-64
2022/09/15 07:49:46;;;;;;;4.33;1.20;;;22.40;25.80;;;;;;5040949;28;20450;-63
2022/09/15 07:52:12;;;;;;;5.63;1.00;;;22.50;25.80;;;;;;5045900;28;20855;-64
2022/09/15 07:54:40;;;;;;;4.03;1.30;;;22.50;25.50;;;;;;5042490;28;20498;-64
2022/09/15 07:57:07;;;;;;;4.30;1.27;;;22.50;25.50;;;;;;5041281;28;20462;-63
2022/09/15 07:59:34;;;;;;;4.40;1.43;;;22.60;25.10;;;;;;5049267;28;20489;-64
2022/09/15 08:02:01;;;;;;;4.40;1.23;;;22.80;24.60;;;;;;5050676;28;20473;-64
2022/09/15 08:04:28;;;;;;;4.30;1.20;;;23.80;24.10;;;;;;5049717;28;21217;-64
2022/09/15 08:06:54;;;;;;;4.00;0.90;;;26.40;18.40;;;;;;5049612;28;20875;-64
2022/09/15 08:09:21;;;;;;;4.47;1.50;;;28.70;13.40;;;;;;5041750;28;20453;-64
2022/09/15 08:11:49;;;;;;;3.33;0.83;;;30.60;8.20;;;;;;5050200;28;20811;-64
2022/09/15 08:14:16;;;;;;;5.67;1.40;;;30.90;6.60;;;;;;5044971;28;20580;-64
2022/09/15 08:16:43;;;;;;;5.77;1.30;;;31.30;6.40;;;;;;5050660;28;20464;-64
2022/09/15 08:19:11;;;;;;;5.20;1.30;;;31.50;5.00;;;;;;5047684;28;20466;-64
2022/09/15 08:21:38;;;;;;;3.17;0.93;;;31.10;5.70;;;;;;5045710;28;20469;-64
2022/09/15 08:24:06;;;;;;;3.47;0.93;;;30.50;6.20;;;;;;5043670;28;20478;-64
2022/09/15 08:26:35;;;;;;;4.23;1.20;;;30.10;7.30;;;;;;5048486;28;20464;-64
2022/09/15 08:29:03;;;;;;;3.93;1.00;;;29.80;7.90;;;;;;5041403;28;21015;-65
2022/09/15 08:31:30;;;;;;;4.33;1.00;;;29.60;8.10;;;;;;5049519;28;20528;-65
2022/09/15 08:33:56;;;;;;;3.90;1.00;;;29.50;8.00;;;;;;5043352;28;21123;-63
2022/09/15 08:36:26;;;;;;;4.00;1.00;;;29.20;8.60;;;;;;5048814;28;20470;-63
2022/09/15 08:38:53;;;;;;;5.30;1.30;;;28.80;8.60;;;;;;5048514;28;20512;-63
2022/09/15 08:41:24;;;;;;;4.97;1.20;;;28.80;9.00;;;;;;5049357;28;20449;-63
2022/09/15 08:43:58;;;;;;;4.23;1.40;;;28.80;8.40;;;;;;5048670;28;21016;-63
2022/09/15 08:46:31;;;;;;;5.57;1.00;;;28.70;8.20;;;;;;5048923;28;20465;-63
2022/09/15 08:49:03;;;;;;;3.63;1.23;;;28.80;8.60;;;;;;5046584;28;20961;-63
2022/09/15 08:51:36;;;;;;;4.10;1.27;;;29.50;7.70;;;;;;5047225;28;20474;-63
2022/09/15 08:54:10;;;;;;;4.00;1.17;;;29.20;7.60;;;;;;5038889;28;20547;-63
2022/09/15 08:56:37;;;;;;;6.77;1.73;;;28.70;8.10;;;;;;5047787;28;20469;-63
2022/09/15 08:59:03;;;;;;;5.10;1.30;;;28.50;8.70;;;;;;5046109;28;21096;-63
2022/09/15 09:01:40;;;;;;;3.87;1.17;;;28.10;9.10;;;;;;5047260;28;20466;-63
2022/09/15 09:04:37;;;;;;;3.73;1.17;;;27.80;9.80;;;;;;5044250;28;20474;-63
2022/09/15 09:07:18;;;;;;;5.10;1.17;;;27.40;11.20;;;;;;5048157;28;20454;-63
2022/09/15 09:09:52;;;;;;;4.37;1.03;;;27.10;11.80;;;;;;5040535;28;20450;-63
2022/09/15 09:12:37;;;;;;;3.93;1.00;;;26.90;11.90;;;;;;5047072;28;20474;-63
2022/09/15 09:15:15;;;;;;;3.63;1.00;;;26.70;12.10;;;;;;5046112;28;21024;-63
2022/09/15 09:18:05;;;;;;;5.27;1.20;;;26.50;12.20;;;;;;5043984;28;20458;-63
2022/09/15 09:20:43;;;;;;;3.83;1.00;;;26.20;12.50;;;;;;5036970;28;20607;-63
2022/09/15 09:23:14;;;;;;;4.50;1.03;;;25.90;13.90;;;;;;5043258;28;20484;-63
2022/09/15 09:25:42;;;;;;;3.70;1.40;;;25.60;14.60;;;;;;5039884;28;20451;-63
2022/09/15 09:28:22;;;;;;;5.77;1.07;;;25.50;15.40;;;;;;5044840;28;20465;-63
2022/09/15 09:30:49;;;;;;;5.63;1.23;;;25.30;15.70;;;;;;5044915;28;20462;-63
2022/09/15 09:33:29;;;;;;;4.33;1.07;;;25.10;16.20;;;;;;5042122;28;20864;-63
2022/09/15 09:36:00;;;;;;;5.20;1.07;;;24.80;16.20;;;;;;5038988;28;20977;-63
2022/09/15 09:38:30;;;;;;;4.03;1.03;;;24.40;16.80;;;;;;5037579;28;20462;-63
2022/09/15 09:40:57;;;;;;;3.73;1.30;;;24.10;17.70;;;;;;5036137;28;20466;-62
2022/09/15 09:43:26;;;;;;;4.60;1.20;;;23.90;18.50;;;;;;5037862;28;20475;-63
2022/09/15 09:45:53;;;;;;;3.93;1.00;;;23.80;18.70;;;;;;5036622;28;20482;-63
2022/09/15 09:48:24;;;;;;;3.90;1.30;;;23.60;19.00;;;;;;5038796;28;20463;-63
2022/09/15 09:50:51;;;;;;;4.40;1.27;;;23.50;19.40;;;;;;5037342;28;20477;-63
2022/09/15 09:53:27;;;;;;;3.87;1.03;;;23.50;19.40;;;;;;5037089;28;20475;-63
2022/09/15 09:55:55;;;;;;;3.50;1.00;;;23.40;19.40;;;;;;5035701;28;20920;-63
2022/09/15 09:58:24;;;;;;;6.40;1.20;;;23.30;20.00;;;;;;5036137;28;20463;-63
2022/09/15 10:00:51;;;;;;;5.93;1.10;;;23.20;20.10;;;;;;5036013;28;20473;-63
2022/09/15 10:03:19;;;;;;;6.80;1.10;;;23.10;21.20;;;;;;5037233;28;20478;-63
2022/09/15 10:06:06;;;;;;;5.30;1.30;;;23.00;21.70;;;;;;5036306;28;20469;-63
2022/09/15 10:08:33;;;;;;;4.37;1.40;;;22.80;22.50;;;;;;5036791;28;20462;-63
2022/09/15 10:11:05;;;;;;;5.20;1.30;;;22.70;24.00;;;;;;5036356;28;20455;-62
2022/09/15 10:13:33;;;;;;;4.10;1.20;;;22.70;23.70;;;;;;5036686;28;20498;-62
2022/09/15 10:16:02;;;;;;;3.73;1.10;;;22.60;23.60;;;;;;5037114;28;20981;-62
2022/09/15 10:18:33;;;;;;;5.73;1.37;;;22.60;23.80;;;;;;5037029;28;20474;-62
2022/09/15 10:21:01;;;;;;;3.70;1.20;;;22.60;23.90;;;;;;5037463;28;20463;-62
2022/09/15 10:23:31;;;;;;;4.63;1.50;;;22.60;24.20;;;;;;5037826;28;20477;-62
2022/09/15 10:26:20;;;;;;;4.13;1.10;;;22.60;24.60;;;;;;5037466;28;20450;-62
2022/09/15 10:29:11;;;;;;;3.87;1.03;;;22.60;24.20;;;;;;5036090;28;21160;-62
2022/09/15 10:31:38;;;;;;;6.30;1.90;;;22.60;24.20;;;;;;5036411;28;21062;-62
2022/09/15 10:34:26;;;;;;;4.20;1.40;;;22.60;24.90;;;;;;5035446;28;20481;-62
2022/09/15 10:36:55;;;;;;;4.80;1.47;;;22.60;25.10;;;;;;5037281;28;20531;-64
2022/09/15 10:39:32;;;;;;;4.17;1.30;;;22.50;24.80;;;;;;5035480;28;20534;-64
2022/09/15 10:42:07;;;;;;;4.50;2.00;;;22.50;25.30;;;;;;5037697;28;20946;-64
2022/09/15 10:44:44;;;;;;;3.90;1.47;;;22.60;25.20;;;;;;5036740;28;20488;-64
2022/09/15 10:47:22;;;;;;;3.50;0.90;;;22.70;24.60;;;;;;5037641;28;20454;-64
2022/09/15 10:50:04;;;;;;;4.20;1.40;;;22.80;24.10;;;;;;5036672;28;20459;-62
2022/09/15 10:52:42;;;;;;;5.00;1.10;;;22.90;23.20;;;;;;5035654;28;20477;-62
2022/09/15 10:55:31;;;;;;;7.73;1.93;;;23.00;22.90;;;;;;5030964;28;20515;-70
2022/09/15 10:58:13;;;;;;;4.53;1.30;;;23.30;22.90;;;;;;5035557;28;20463;-71
2022/09/15 11:00:49;;;;;;;4.57;1.40;;;23.50;21.70;;;;;;5032691;28;20467;-70
2022/09/15 11:03:39;;;;;;;6.33;1.20;;;23.80;20.90;;;;;;5034492;28;20473;-69
2022/09/15 11:06:16;;;;;;;3.80;1.40;;;23.90;20.60;;;;;;5036661;28;20455;-71
2022/09/15 11:09:01;;;;;;;6.67;1.77;;;23.90;20.20;;;;;;5036125;28;20469;-69
2022/09/15 11:11:37;;;;;;;4.10;1.37;;;23.60;20.30;;;;;;5035630;28;20489;-71
2022/09/15 11:14:18;;;;;;;4.73;1.60;;;23.40;21.20;;;;;;5034242;28;20489;-69
2022/09/15 11:16:59;;;;;;;4.90;1.60;;;23.30;21.80;;;;;;5034885;28;20458;-68
2022/09/15 11:19:41;;;;;;;5.67;1.50;;;23.20;22.00;;;;;;5032077;28;20462;-71
2022/09/15 11:22:12;;;;;;;4.77;1.80;;;23.20;22.00;;;;;;5035748;28;20947;-66
2022/09/15 11:24:44;;;;;;;3.80;1.20;;;23.20;22.20;;;;;;5035707;28;20482;-66
2022/09/15 11:27:17;;;;;;;5.53;1.43;;;23.20;22.50;;;;;;5036176;28;20468;-66
2022/09/15 11:30:15;;;;;;;4.63;1.43;;;23.20;22.80;;;;;;5034245;28;20490;-65
2022/09/15 11:32:48;;;;;;;6.50;2.47;;;23.30;22.40;;;;;;5027955;28;20473;-63
2022/09/15 11:35:37;;;;;;;8.97;1.40;;;23.20;22.30;;;;;;5040923;28;20846;-62
2022/09/15 11:38:18;;;;;;;4.83;1.73;;;23.10;20.90;;;;;;5040836;28;20450;-63
2022/09/15 11:40:50;;;;;;;4.50;1.73;;;23.00;21.60;;;;;;5041027;28;20473;-63
2022/09/15 11:43:22;;;;;;;5.90;1.80;;;23.00;22.20;;;;;;5040694;28;20561;-62
2022/09/15 11:45:54;;;;;;;5.30;1.50;;;23.30;22.80;;;;;;5040513;28;21010;-62
2022/09/15 11:48:28;;;;;;;4.37;1.30;;;23.50;22.10;;;;;;5047896;28;20453;-63
2022/09/15 11:50:56;;;;;;;4.07;1.50;;;23.80;21.70;;;;;;5046875;28;20997;-62
2022/09/15 11:53:32;;;;;;;4.80;1.50;;;23.90;20.90;;;;;;5047899;28;21001;-63
2022/09/15 11:56:09;;;;;;;5.33;1.40;;;23.90;20.00;;;;;;5048932;28;20510;-63
2022/09/15 11:58:45;;;;;;;3.80;1.13;;;23.90;20.60;;;;;;5035838;28;20468;-63
2022/09/15 12:01:16;;;;;;;4.63;1.63;;;24.00;20.60;;;;;;5042778;28;20583;-63
2022/09/15 12:03:51;;;;;;;4.17;1.00;;;24.10;19.90;;;;;;5043556;28;20526;-63
2022/09/15 12:06:23;;;;;;;4.33;1.40;;;24.20;19.40;;;;;;5041040;28;22994;-62
2022/09/15 12:08:56;;;;;;;3.87;1.33;;;24.50;19.70;;;;;;5042970;28;20473;-62
2022/09/15 12:11:26;;;;;;;4.27;1.17;;;24.70;18.30;;;;;;5044584;28;20468;-63
2022/09/15 12:13:53;;;;;;;4.43;1.17;;;24.80;18.40;;;;;;5044361;28;20493;-63
2022/09/15 12:16:21;;;;;;;3.60;1.23;;;25.00;17.90;;;;;;5040714;28;20450;-62
2022/09/15 12:18:54;;;;;;;3.40;1.00;;;24.90;16.70;;;;;;5040521;28;21065;-63
2022/09/15 12:21:32;;;;;;;4.73;1.10;;;24.80;16.40;;;;;;5038131;28;20453;-64
2022/09/15 12:24:03;;;;;;;3.70;1.20;;;24.70;16.90;;;;;;5041448;28;21088;-64
2022/09/15 12:26:33;;;;;;;3.40;1.10;;;24.70;17.60;;;;;;5040349;28;20972;-62
2022/09/15 12:29:01;;;;;;;5.03;1.40;;;24.70;17.00;;;;;;5038936;28;20989;-61
2022/09/15 12:31:32;;;;;;;4.20;1.07;;;24.60;17.20;;;;;;5040581;28;20481;-62
2022/09/15 12:34:01;;;;;;;5.20;1.20;;;24.40;17.00;;;;;;5044496;28;20469;-61
2022/09/15 12:36:41;;;;;;;3.90;1.20;;;24.10;17.80;;;;;;5041135;28;20458;-61
2022/09/15 12:39:36;;;;;;;6.87;1.53;;;23.80;18.40;;;;;;5043429;28;20457;-61
2022/09/15 12:42:12;;;;;;;4.20;1.40;;;23.60;19.20;;;;;;5042331;28;20541;-61
2022/09/15 12:44:43;;;;;;;4.27;1.40;;;23.40;21.00;;;;;;5037170;28;20490;-61
2022/09/15 12:47:20;;;;;;;6.63;1.43;;;23.10;22.90;;;;;;5040395;28;20723;-60
2022/09/15 12:49:51;;;;;;;5.17;2.00;;;22.70;24.70;;;;;;5038661;28;20469;-61
2022/09/15 12:52:20;;;;;;;12.20;2.63;;;22.50;27.00;;;;;;5035010;28;20492;-64
2022/09/15 12:54:53;;;;;;;7.60;1.97;;;22.20;28.30;;;;;;5035778;28;20481;-66
2022/09/15 12:57:24;;;;;;;5.40;2.10;;;22.00;30.40;;;;;;5035616;28;20466;-64
2022/09/15 13:00:32;;;;;;;7.67;1.93;;;21.70;31.20;;;;;;5037968;28;20469;-70
2022/09/15 13:03:00;;;;;;;5.40;1.27;;;21.40;32.10;;;;;;5037953;28;20545;-64
2022/09/15 13:06:11;;;;;;;5.17;1.33;;;21.30;32.40;;;;;;5033568;28;20474;-68
2022/09/15 13:09:25;;;;;;;3.70;1.00;;;21.20;32.30;;;;;;5035742;28;20536;-67